Time;durP1;ratioP1;P1;durP2;ratioP2;P2;SDS_P1;SDS_P2;PMS_P1;PMS_P2;Temp;Humidity;BMP_temperature;BMP_pressure;BME280_temperature;BME280_humidity;BME280_pressure;Samples;Min_cycle;Max_cycle;Signal;HPM_P1;HPM_P2
2023/06/25 00:01:26;;;;;;;8.43;7.35;;;;;;;22.98;85.03;98045.13;5031658;28;20225;-57
2023/06/25 00:03:51;;;;;;;8.85;6.93;;;;;;;23.05;84.66;98051.28;5031454;28;20206;-57
2023/06/25 00:06:19;;;;;;;10.70;7.13;;;;;;;22.90;85.33;98042.63;5031556;28;20197;-57
2023/06/25 00:08:45;;;;;;;6.97;6.28;;;;;;;22.86;87.76;98062.50;5031560;28;20644;-57
2023/06/25 00:11:11;;;;;;;7.45;6.75;;;;;;;22.98;86.70;98058.34;5031736;28;20204;-56
2023/06/25 00:13:36;;;;;;;10.77;6.75;;;;;;;22.89;86.67;98056.81;5031442;28;20198;-57
2023/06/25 00:16:02;;;;;;;7.43;6.72;;;;;;;22.95;86.50;98065.81;5031405;28;20188;-57
2023/06/25 00:18:28;;;;;;;7.47;6.40;;;;;;;23.02;85.21;98066.69;5047765;28;20188;-57
2023/06/25 00:20:54;;;;;;;10.13;6.72;;;;;;;22.65;88.23;98053.75;5053328;28;20611;-57
2023/06/25 00:23:20;;;;;;;7.10;6.50;;;;;;;22.28;91.82;98043.44;5053441;28;20181;-57
2023/06/25 00:25:45;;;;;;;7.32;6.63;;;;;;;22.51;90.23;98062.56;5053222;28;20571;-57
2023/06/25 00:28:11;;;;;;;7.18;6.50;;;;;;;22.73;88.54;98082.66;5053458;28;20654;-57
2023/06/25 00:30:37;;;;;;;7.32;6.70;;;;;;;22.66;90.01;98081.78;5070827;28;20199;-57
2023/06/25 00:33:03;;;;;;;8.52;6.70;;;;;;;22.55;91.08;98087.56;5070939;28;20185;-58
2023/06/25 00:35:43;;;;;;;9.18;6.97;;;;;;;22.01;93.96;98096.81;5070923;28;20195;-57
2023/06/25 00:38:09;;;;;;;7.82;6.78;;;;;;;21.94;95.55;98074.84;5070811;28;20196;-57
2023/06/25 00:40:35;;;;;;;7.85;6.75;;;;;;;21.90;95.68;98058.59;5070571;28;20283;-57
2023/06/25 00:43:01;;;;;;;9.20;7.03;;;;;;;22.18;93.26;98075.38;5070744;28;20181;-57
2023/06/25 00:45:26;;;;;;;6.95;6.35;;;;;;;21.94;94.06;98037.97;5070555;28;20220;-57
2023/06/25 00:47:53;;;;;;;7.75;6.97;;;;;;;21.97;91.94;98053.44;5070664;28;20670;-57
2023/06/25 00:50:21;;;;;;;8.32;7.03;;;;;;;22.22;91.97;98075.81;5070548;28;20284;-57
2023/06/25 00:52:48;;;;;;;7.93;7.05;;;;;;;22.08;92.51;98081.94;5070536;28;20176;-56
2023/06/25 00:55:15;;;;;;;7.60;6.90;;;;;;;21.97;92.37;98059.50;5070494;28;20276;-56
2023/06/25 00:57:41;;;;;;;7.35;6.55;;;;;;;22.05;92.62;98067.31;5070524;28;20177;-57
2023/06/25 01:00:10;;;;;;;9.02;6.68;;;;;;;22.02;92.82;98072.13;5070354;28;20241;-57
2023/06/25 01:02:44;;;;;;;8.63;7.30;;;;;;;22.03;92.97;98076.41;5031739;28;20178;-57
2023/06/25 01:05:24;;;;;;;7.72;6.90;;;;;;;22.09;92.63;98078.31;5030139;28;20272;-57
2023/06/25 01:07:52;;;;;;;7.63;6.95;;;;;;;21.83;93.86;98062.16;5030191;28;20185;-57
2023/06/25 01:10:19;;;;;;;8.32;7.55;;;;;;;21.81;94.34;98069.44;5029941;28;20618;-57
2023/06/25 01:12:44;;;;;;;8.50;6.80;;;;;;;21.71;93.76;98034.66;5049888;28;20192;-57
2023/06/25 01:15:10;;;;;;;7.40;6.70;;;;;;;21.81;92.35;98035.19;5050094;28;20603;-57
2023/06/25 01:17:36;;;;;;;7.88;7.10;;;;;;;21.96;93.06;98070.25;5050145;28;20192;-57
2023/06/25 01:20:05;;;;;;;7.65;6.95;;;;;;;21.91;93.59;98065.50;5050052;28;20272;-57
2023/06/25 01:22:32;;;;;;;8.05;7.03;;;;;;;21.76;92.92;98045.47;5049943;28;20204;-57
2023/06/25 01:24:58;;;;;;;7.35;6.43;;;;;;;21.90;92.55;98061.25;5049889;28;20217;-57
2023/06/25 01:27:24;;;;;;;7.22;6.53;;;;;;;22.07;91.27;98064.47;5049976;28;20193;-57
2023/06/25 01:29:50;;;;;;;7.90;6.35;;;;;;;22.08;90.56;98064.28;5049945;28;20181;-57
2023/06/25 01:32:16;;;;;;;7.32;6.63;;;;;;;22.01;92.09;98059.94;5049908;28;20267;-57
2023/06/25 01:34:42;;;;;;;8.68;6.95;;;;;;;21.97;91.79;98050.78;5049902;28;20265;-57
2023/06/25 01:37:08;;;;;;;7.70;6.97;;;;;;;21.84;92.18;98047.97;5051722;28;20664;-56
2023/06/25 01:39:33;;;;;;;7.53;6.82;;;;;;;21.95;91.69;98071.22;5052213;28;20184;-57
2023/06/25 01:41:59;;;;;;;7.55;6.88;;;;;;;22.02;91.45;98070.31;5052095;28;20177;-57
2023/06/25 01:44:29;;;;;;;9.68;7.00;;;;;;;21.86;91.03;98043.34;5052012;28;20200;-57
2023/06/25 01:46:55;;;;;;;9.07;6.90;;;;;;;21.88;91.68;98050.06;5051810;28;20177;-57
2023/06/25 01:49:22;;;;;;;8.13;6.80;;;;;;;21.90;92.57;98068.31;5052068;28;20184;-57
2023/06/25 01:51:47;;;;;;;7.88;7.07;;;;;;;21.71;95.02;98053.91;5051757;28;20647;-57
2023/06/25 01:54:13;;;;;;;7.15;6.53;;;;;;;21.44;98.38;98066.88;5051932;28;20200;-57
2023/06/25 01:56:39;;;;;;;7.20;6.50;;;;;;;21.22;98.78;98047.50;5051728;28;20256;-57
2023/06/25 01:59:04;;;;;;;8.02;7.05;;;;;;;21.12;100.00;98061.94;5051980;28;20850;-57
2023/06/25 02:01:31;;;;;;;7.43;6.72;;;;;;;20.89;100.00;98026.97;5051632;28;20243;-57
2023/06/25 02:03:56;;;;;;;7.63;6.93;;;;;;;20.74;100.00;98031.34;5051854;28;20588;-57
2023/06/25 02:06:22;;;;;;;7.72;6.93;;;;;;;20.90;100.00;98068.03;5051798;28;20174;-57
2023/06/25 02:08:48;;;;;;;7.28;6.57;;;;;;;20.78;100.00;98066.81;5051748;28;20181;-57
2023/06/25 02:11:13;;;;;;;6.88;6.30;;;;;;;20.71;100.00;98031.69;5051775;28;20663;-57
2023/06/25 02:13:38;;;;;;;7.82;7.13;;;;;;;21.15;100.00;98056.31;5051808;28;20191;-57
2023/06/25 02:16:04;;;;;;;8.70;6.68;;;;;;;21.23;100.00;98053.59;5051777;28;20256;-57
2023/06/25 02:18:31;;;;;;;7.97;6.88;;;;;;;21.41;96.37;98030.38;5051771;28;20248;-57
2023/06/25 02:20:56;;;;;;;8.15;7.35;;;;;;;21.45;93.26;98021.13;5054615;28;20182;-57
2023/06/25 02:23:22;;;;;;;7.15;6.45;;;;;;;21.69;92.57;98032.19;5055700;28;20706;-57
2023/06/25 02:25:48;;;;;;;11.75;6.95;;;;;;;21.76;91.80;98051.56;5055780;28;20218;-57
2023/06/25 02:28:13;;;;;;;7.30;6.10;;;;;;;21.82;90.35;98040.28;5055733;28;20173;-57
2023/06/25 02:30:39;;;;;;;7.07;6.47;;;;;;;21.89;90.00;98042.97;5055724;28;20208;-57
2023/06/25 02:33:04;;;;;;;7.28;6.57;;;;;;;21.89;89.90;98045.59;5055661;28;20169;-57
2023/06/25 02:35:30;;;;;;;7.00;6.40;;;;;;;21.97;88.25;98059.50;5055357;28;20173;-57
2023/06/25 02:37:55;;;;;;;8.60;6.25;;;;;;;21.77;87.78;98039.19;5055305;28;20177;-57
2023/06/25 02:40:21;;;;;;;7.72;6.50;;;;;;;21.74;88.56;98053.53;5055512;28;20172;-57
2023/06/25 02:42:47;;;;;;;7.30;6.57;;;;;;;21.81;87.62;98043.91;5032937;28;20309;-57
2023/06/25 02:45:12;;;;;;;7.45;6.70;;;;;;;21.93;87.47;98052.97;5033021;28;20217;-57
2023/06/25 02:47:38;;;;;;;7.18;6.45;;;;;;;22.02;87.52;98056.31;5033354;28;20194;-57
2023/06/25 02:50:04;;;;;;;7.35;6.57;;;;;;;22.05;87.32;98055.94;5033076;28;20174;-56
2023/06/25 02:52:29;;;;;;;6.65;6.10;;;;;;;22.06;87.18;98047.88;5033002;28;20773;-57
2023/06/25 02:54:55;;;;;;;7.95;7.18;;;;;;;22.06;86.94;98045.22;5032899;28;20776;-57
2023/06/25 02:57:23;;;;;;;7.07;6.40;;;;;;;21.70;89.25;98046.19;5032875;28;20671;-57
2023/06/25 02:59:49;;;;;;;7.15;6.45;;;;;;;21.68;90.12;98058.72;5072066;28;20589;-57
2023/06/25 03:02:14;;;;;;;7.10;6.40;;;;;;;21.39;91.31;98038.44;5072681;28;20191;-57
2023/06/25 03:04:39;;;;;;;10.20;6.57;;;;;;;21.46;92.36;98056.97;5072427;28;20761;-57
2023/06/25 03:07:05;;;;;;;9.30;7.00;;;;;;;21.36;91.90;98051.97;5072610;28;20686;-57
2023/06/25 03:09:31;;;;;;;9.15;6.50;;;;;;;21.14;92.95;98033.63;5072538;28;20305;-57
2023/06/25 03:11:56;;;;;;;6.93;6.32;;;;;;;21.37;93.27;98055.41;5072825;28;20535;-57
2023/06/25 03:14:22;;;;;;;7.25;6.55;;;;;;;21.42;91.73;98042.53;5072356;28;20210;-57
2023/06/25 03:16:47;;;;;;;7.15;6.47;;;;;;;21.48;92.66;98041.81;5052240;28;20339;-57
2023/06/25 03:19:13;;;;;;;7.97;7.18;;;;;;;21.48;91.55;98026.00;5052351;28;20185;-57
2023/06/25 03:21:38;;;;;;;7.28;6.60;;;;;;;21.63;91.36;98046.06;5052269;28;20189;-57
2023/06/25 03:24:04;;;;;;;7.80;7.07;;;;;;;21.76;90.51;98056.00;5052265;28;20205;-57
2023/06/25 03:26:29;;;;;;;7.32;6.25;;;;;;;21.77;90.33;98055.81;5052291;28;20193;-57
2023/06/25 03:28:56;;;;;;;7.45;6.55;;;;;;;21.63;90.95;98037.34;5052268;28;20177;-57
2023/06/25 03:31:21;;;;;;;6.63;6.03;;;;;;;21.57;91.17;98033.63;5051361;28;20221;-57
2023/06/25 03:33:47;;;;;;;11.57;7.03;;;;;;;21.57;91.31;98041.53;5052182;28;20259;-57
2023/06/25 03:36:12;;;;;;;6.57;5.97;;;;;;;21.63;91.02;98035.53;5052079;28;20189;-57
2023/06/25 03:38:37;;;;;;;7.55;6.32;;;;;;;21.85;89.64;98050.44;5052067;28;20259;-57
2023/06/25 03:41:03;;;;;;;7.05;6.25;;;;;;;22.00;90.24;98056.50;5052033;28;20666;-57
2023/06/25 03:43:28;;;;;;;7.03;6.32;;;;;;;22.12;88.98;98057.66;5051840;28;20181;-57
2023/06/25 03:45:54;;;;;;;7.90;6.80;;;;;;;22.23;87.95;98065.09;5051952;28;20177;-57
2023/06/25 03:48:20;;;;;;;7.25;6.25;;;;;;;22.13;87.66;98053.19;5053277;28;20189;-57
2023/06/25 03:50:45;;;;;;;6.78;6.18;;;;;;;22.31;88.09;98061.53;5054216;28;20174;-57
2023/06/25 03:53:11;;;;;;;7.15;6.53;;;;;;;22.19;86.93;98031.34;5054149;28;20565;-57
2023/06/25 03:55:36;;;;;;;8.68;7.78;;;;;;;22.42;85.52;98066.28;5054172;28;20208;-57
2023/06/25 03:58:02;;;;;;;6.65;6.15;;;;;;;22.44;84.23;98035.31;5054147;28;20173;-57
2023/06/25 04:00:27;;;;;;;7.10;6.50;;;;;;;22.63;84.71;98055.78;5054066;28;20177;-57
2023/06/25 04:02:52;;;;;;;7.28;6.50;;;;;;;22.54;86.49;98051.63;5053938;28;21040;-57
2023/06/25 04:05:18;;;;;;;8.27;6.18;;;;;;;22.44;83.59;98033.47;5053923;28;20740;-57
2023/06/25 04:07:43;;;;;;;7.15;6.05;;;;;;;22.69;84.42;98060.31;5053891;28;20604;-57
2023/06/25 04:10:09;;;;;;;6.32;5.82;;;;;;;22.75;84.24;98068.28;5053569;28;20179;-57
2023/06/25 04:12:35;;;;;;;7.85;7.15;;;;;;;22.63;84.96;98030.22;5053588;28;20173;-57
2023/06/25 04:15:00;;;;;;;6.63;6.03;;;;;;;22.73;82.36;98056.28;5053813;28;20188;-57
2023/06/25 04:17:26;;;;;;;6.28;5.78;;;;;;;22.74;81.26;98060.56;5053772;28;20679;-57
2023/06/25 04:19:51;;;;;;;7.07;6.38;;;;;;;22.49;81.21;98027.66;5053646;28;20553;-57
2023/06/25 04:22:16;;;;;;;9.88;6.18;;;;;;;22.56;80.42;98026.69;5053386;28;20284;-57
2023/06/25 04:24:42;;;;;;;7.22;6.10;;;;;;;22.77;80.91;98049.59;5053280;28;20197;-57
2023/06/25 04:27:07;;;;;;;6.57;5.90;;;;;;;22.61;80.73;98021.66;5053317;28;20169;-57
2023/06/25 04:29:33;;;;;;;10.00;6.43;;;;;;;22.82;80.78;98061.25;5053485;28;20173;-57
2023/06/25 04:32:00;;;;;;;6.30;5.70;;;;;;;22.80;79.63;98054.50;5053356;28;20268;-57
2023/06/25 04:34:25;;;;;;;7.03;6.28;;;;;;;22.74;80.24;98021.81;5053353;28;20268;-57
2023/06/25 04:36:51;;;;;;;6.03;5.53;;;;;;;22.87;79.62;98053.56;5053148;28;20299;-57
2023/06/25 04:39:16;;;;;;;6.05;5.55;;;;;;;22.96;78.90;98056.88;5053348;28;20204;-57
2023/06/25 04:41:41;;;;;;;6.60;6.07;;;;;;;22.87;79.06;98052.75;5053301;28;20165;-57
2023/06/25 04:44:07;;;;;;;6.55;5.95;;;;;;;22.89;79.08;98041.00;5052092;28;20204;-57
2023/06/25 04:46:32;;;;;;;7.68;6.03;;;;;;;22.94;78.02;98043.03;5053215;28;20169;-57
2023/06/25 04:48:58;;;;;;;6.75;6.10;;;;;;;22.98;77.70;98029.31;5052822;28;20169;-57
2023/06/25 04:51:23;;;;;;;7.05;6.35;;;;;;;23.12;77.06;98046.03;5053084;28;20521;-57
2023/06/25 04:53:49;;;;;;;6.60;6.00;;;;;;;23.21;76.69;98047.56;5090677;28;20192;-57
2023/06/25 04:56:15;;;;;;;7.53;6.35;;;;;;;23.39;76.97;98066.38;5090778;28;20684;-57
2023/06/25 04:58:41;;;;;;;6.72;6.10;;;;;;;23.51;75.66;98067.44;5090725;28;20233;-57
2023/06/25 05:01:06;;;;;;;6.45;5.85;;;;;;;23.20;75.98;98032.72;5090770;28;20716;-57
2023/06/25 05:03:32;;;;;;;7.70;6.30;;;;;;;23.31;75.37;98043.56;5090683;28;20219;-57
2023/06/25 05:05:57;;;;;;;6.22;5.72;;;;;;;23.58;74.69;98069.13;5090887;28;20180;-57
2023/06/25 05:08:23;;;;;;;6.57;6.00;;;;;;;23.53;75.16;98068.09;5090538;28;20216;-57
2023/06/25 05:10:48;;;;;;;9.07;5.80;;;;;;;23.65;74.15;98091.09;5090439;28;20653;-57
2023/06/25 05:13:14;;;;;;;7.10;6.18;;;;;;;23.68;73.90;98085.44;5090504;28;20276;-57
2023/06/25 05:15:41;;;;;;;6.53;6.03;;;;;;;23.69;73.82;98085.22;5090457;28;20561;-57
2023/06/25 05:18:10;;;;;;;6.88;6.20;;;;;;;23.76;74.88;98103.78;5090321;28;20240;-57
2023/06/25 05:20:37;;;;;;;9.18;6.47;;;;;;;23.83;75.37;98101.97;5090380;28;20282;-57
2023/06/25 05:23:06;;;;;;;11.05;6.03;;;;;;;24.04;75.38;98123.88;5090302;28;20180;-57
2023/06/25 05:25:33;;;;;;;6.90;6.20;;;;;;;24.08;74.34;98096.03;5059226;28;20295;-57
2023/06/25 05:28:01;;;;;;;7.07;6.47;;;;;;;24.20;73.30;98117.44;5052407;28;20177;-56
2023/06/25 05:30:28;;;;;;;7.50;6.05;;;;;;;24.24;73.11;98105.44;5052293;28;20181;-57
2023/06/25 05:32:53;;;;;;;5.75;5.25;;;;;;;24.15;71.80;98106.66;5052282;28;20566;-57
2023/06/25 05:35:19;;;;;;;6.57;5.97;;;;;;;24.23;71.87;98116.25;5052260;28;20177;-57
2023/06/25 05:37:44;;;;;;;6.82;6.18;;;;;;;24.20;72.69;98101.59;5052223;28;20173;-57
2023/06/25 05:40:10;;;;;;;6.85;6.22;;;;;;;24.28;74.79;98115.44;5051901;28;20169;-57
2023/06/25 05:42:36;;;;;;;7.00;6.03;;;;;;;24.29;74.27;98106.50;5052170;28;20181;-57
2023/06/25 05:45:02;;;;;;;8.85;6.15;;;;;;;24.41;74.42;98104.91;5052027;28;20287;-57
2023/06/25 05:47:27;;;;;;;8.00;6.43;;;;;;;24.30;74.52;98092.25;5052135;28;20177;-58
2023/06/25 05:49:52;;;;;;;7.78;6.85;;;;;;;24.55;77.24;98114.50;5052324;28;20185;-57
2023/06/25 05:52:18;;;;;;;8.35;6.80;;;;;;;24.67;80.79;98098.91;5052050;28;20227;-57
2023/06/25 05:54:43;;;;;;;8.77;6.50;;;;;;;24.81;83.07;98084.66;5051728;28;20580;-57
2023/06/25 05:57:09;;;;;;;7.70;6.47;;;;;;;24.94;83.22;98090.78;5051664;28;20204;-57
2023/06/25 05:59:34;;;;;;;11.43;7.10;;;;;;;25.13;83.06;98103.22;5051827;28;20172;-57
2023/06/25 06:01:59;;;;;;;11.18;6.88;;;;;;;25.17;83.55;98091.19;5051894;28;20575;-57
2023/06/25 06:04:25;;;;;;;11.70;6.95;;;;;;;25.43;83.01;98111.59;5051816;28;20207;-57
2023/06/25 06:06:51;;;;;;;9.10;7.38;;;;;;;25.57;82.47;98119.31;5051789;28;20204;-57
2023/06/25 06:09:17;;;;;;;9.88;7.55;;;;;;;25.55;81.97;98091.41;5049255;28;20197;-57
2023/06/25 06:11:42;;;;;;;10.07;7.55;;;;;;;25.57;82.70;98107.88;5049639;28;20205;-57
2023/06/25 06:14:08;;;;;;;12.73;7.53;;;;;;;25.60;82.83;98113.59;5049155;28;20819;-57
2023/06/25 06:16:33;;;;;;;7.90;7.00;;;;;;;25.38;83.08;98108.75;5049308;28;20604;-57
2023/06/25 06:18:58;;;;;;;11.18;7.93;;;;;;;25.59;83.15;98125.22;5049191;28;20285;-57
2023/06/25 06:21:24;;;;;;;11.93;7.43;;;;;;;25.61;82.20;98107.25;5049173;28;20181;-57
2023/06/25 06:23:49;;;;;;;9.25;8.13;;;;;;;25.69;82.05;98117.66;5049133;28;20292;-57
2023/06/25 06:26:16;;;;;;;9.55;7.43;;;;;;;25.80;82.44;98119.69;5049503;28;20607;-57
2023/06/25 06:28:41;;;;;;;10.88;7.18;;;;;;;25.78;81.96;98105.00;5049272;28;20264;-57
2023/06/25 06:31:07;;;;;;;9.50;8.07;;;;;;;25.88;81.26;98098.22;5049226;28;20279;-57
2023/06/25 06:33:32;;;;;;;11.85;7.68;;;;;;;26.02;81.03;98105.13;5048975;28;20651;-56
2023/06/25 06:35:58;;;;;;;8.38;7.45;;;;;;;25.94;81.52;98086.03;5049004;28;20667;-57
2023/06/25 06:38:23;;;;;;;8.18;6.93;;;;;;;26.16;80.55;98104.09;5049120;28;20264;-57
2023/06/25 06:40:48;;;;;;;11.40;6.93;;;;;;;26.14;79.70;98076.16;5049086;28;20204;-57
2023/06/25 06:43:14;;;;;;;9.23;6.65;;;;;;;26.39;79.14;98099.09;5049327;28;20177;-57
2023/06/25 06:45:39;;;;;;;10.02;6.65;;;;;;;26.35;78.81;98073.19;5034544;28;20221;-56
2023/06/25 06:48:05;;;;;;;11.00;7.60;;;;;;;26.57;78.58;98095.75;5029182;28;20186;-56
2023/06/25 06:50:30;;;;;;;10.68;6.43;;;;;;;26.67;78.11;98096.09;5029207;28;20648;-56
2023/06/25 06:52:56;;;;;;;8.18;7.20;;;;;;;26.69;77.23;98094.84;5029131;28;20178;-57
2023/06/25 06:55:21;;;;;;;10.65;6.57;;;;;;;26.70;76.97;98061.97;5028905;28;20202;-57
2023/06/25 06:57:47;;;;;;;8.40;6.20;;;;;;;26.78;76.34;98072.34;5048721;28;20217;-56
2023/06/25 07:00:13;;;;;;;9.20;6.25;;;;;;;26.83;76.25;98063.72;5048898;28;20189;-56
2023/06/25 07:02:38;;;;;;;12.45;6.60;;;;;;;27.02;76.45;98071.53;5048597;28;20217;-57
2023/06/25 07:05:04;;;;;;;11.93;6.78;;;;;;;27.10;76.51;98076.56;5077934;28;20357;-57
2023/06/25 07:07:30;;;;;;;12.30;6.50;;;;;;;26.98;75.32;98057.06;5090934;28;20631;-57
2023/06/25 07:09:55;;;;;;;8.27;6.60;;;;;;;26.92;75.37;98052.63;5092810;28;20180;-57
2023/06/25 07:12:22;;;;;;;6.55;5.68;;;;;;;27.14;75.41;98072.47;5092759;28;20180;-57
2023/06/25 07:14:47;;;;;;;7.20;6.05;;;;;;;27.18;73.35;98057.72;5092640;28;20612;-56
2023/06/25 07:17:13;;;;;;;10.20;6.22;;;;;;;27.17;72.66;98040.16;5072210;28;20185;-57
2023/06/25 07:19:38;;;;;;;11.25;5.82;;;;;;;27.42;70.80;98048.94;5072384;28;20181;-56
2023/06/25 07:22:04;;;;;;;7.97;5.20;;;;;;;27.41;68.34;98034.00;5072282;28;20181;-56
2023/06/25 07:24:29;;;;;;;6.05;5.43;;;;;;;27.56;68.05;98045.09;5072197;28;20682;-58
2023/06/25 07:26:55;;;;;;;6.50;4.78;;;;;;;27.51;68.60;98036.97;5057354;28;20587;-58
2023/06/25 07:29:20;;;;;;;8.82;4.95;;;;;;;27.60;68.00;98034.81;5071988;28;20187;-58
2023/06/25 07:31:46;;;;;;;5.55;4.97;;;;;;;27.72;66.97;98028.56;5072124;28;20203;-58
2023/06/25 07:34:11;;;;;;;5.78;5.20;;;;;;;27.89;67.52;98053.56;5072026;28;20289;-58
2023/06/25 07:36:37;;;;;;;5.75;4.70;;;;;;;27.86;65.46;98039.88;5072132;28;20686;-58
2023/06/25 07:39:04;;;;;;;6.18;5.32;;;;;;;27.97;64.84;98047.91;5072290;28;20616;-57
2023/06/25 07:41:29;;;;;;;6.88;5.05;;;;;;;27.99;65.40;98048.50;5031865;28;20185;-58
2023/06/25 07:43:55;;;;;;;6.63;5.10;;;;;;;27.94;64.96;98032.38;5011880;28;20735;-56
2023/06/25 07:46:24;;;;;;;9.02;5.15;;;;;;;28.03;64.73;98052.34;5012107;28;20325;-56
2023/06/25 07:48:50;;;;;;;7.90;5.63;;;;;;;28.12;60.04;98051.00;5012014;28;20190;-56
2023/06/25 07:51:15;;;;;;;6.20;5.50;;;;;;;28.14;59.92;98046.28;5012029;28;20260;-58
2023/06/25 07:53:41;;;;;;;7.85;5.78;;;;;;;28.04;59.75;98024.69;5029395;28;20254;-57
2023/06/25 07:56:07;;;;;;;5.55;5.05;;;;;;;28.24;60.42;98040.41;5011918;28;20190;-57
2023/06/25 07:58:33;;;;;;;8.82;5.53;;;;;;;28.10;60.31;98013.16;5011933;28;20190;-57
2023/06/25 08:00:59;;;;;;;6.38;5.07;;;;;;;28.24;61.50;98035.09;5011880;28;20676;-57
2023/06/25 08:03:25;;;;;;;6.70;5.30;;;;;;;28.20;61.47;98017.94;5011622;28;20233;-58
2023/06/25 08:05:50;;;;;;;6.78;5.05;;;;;;;28.27;62.18;98016.81;5011848;28;20692;-57
2023/06/25 08:08:16;;;;;;;6.72;5.20;;;;;;;28.40;62.51;98026.50;5011743;28;20194;-57
2023/06/25 08:10:41;;;;;;;5.65;5.13;;;;;;;28.43;62.22;98013.56;5011710;28;20195;-57
2023/06/25 08:13:07;;;;;;;10.45;5.00;;;;;;;28.50;61.52;98021.44;5027150;28;20260;-57
2023/06/25 08:15:32;;;;;;;8.30;5.25;;;;;;;28.54;61.81;98017.28;5046687;28;20592;-58
2023/06/25 08:17:58;;;;;;;7.43;5.45;;;;;;;28.55;61.74;98010.91;5051111;28;20177;-57
2023/06/25 08:20:23;;;;;;;7.35;6.00;;;;;;;28.65;60.99;98013.81;5051510;28;20196;-58
2023/06/25 08:22:48;;;;;;;6.75;5.13;;;;;;;28.61;59.57;97999.34;5051251;28;20174;-57
2023/06/25 08:25:23;;;;;;;7.50;5.55;;;;;;;28.68;59.68;98005.41;5052649;28;20221;-57
2023/06/25 08:27:48;;;;;;;7.07;5.10;;;;;;;28.68;59.69;97990.22;5050971;28;20272;-57
2023/06/25 08:30:14;;;;;;;6.80;5.38;;;;;;;28.64;58.44;97988.25;5051055;28;20193;-57
2023/06/25 08:32:39;;;;;;;9.93;5.13;;;;;;;28.72;58.61;98004.69;5051049;28;20217;-57
2023/06/25 08:35:05;;;;;;;7.75;5.53;;;;;;;28.78;59.02;98006.44;5051047;28;20287;-57
2023/06/25 08:37:31;;;;;;;7.35;5.07;;;;;;;28.70;58.00;97985.50;5050917;28;20263;-57
2023/06/25 08:39:56;;;;;;;5.32;4.82;;;;;;;28.75;58.79;97995.44;5050932;28;20326;-57
2023/06/25 08:42:22;;;;;;;7.65;5.38;;;;;;;28.73;58.57;97995.66;5050787;28;20185;-57
2023/06/25 08:44:47;;;;;;;6.90;5.00;;;;;;;28.75;59.18;97988.25;5050633;28;20213;-57
2023/06/25 08:47:18;;;;;;;5.55;4.85;;;;;;;28.72;59.52;97970.06;5050759;28;20177;-57
2023/06/25 08:49:48;;;;;;;7.10;5.53;;;;;;;29.01;59.02;97998.50;5050839;28;20189;-57
2023/06/25 08:52:14;;;;;;;6.22;5.18;;;;;;;29.04;58.00;97987.38;5050691;28;20182;-58
2023/06/25 08:54:40;;;;;;;6.60;5.32;;;;;;;29.00;57.59;97986.22;5050605;28;20215;-57
2023/06/25 08:57:07;;;;;;;5.72;5.20;;;;;;;29.09;57.48;97990.16;5050549;28;20244;-57
2023/06/25 08:59:33;;;;;;;6.30;5.55;;;;;;;29.17;57.76;97981.81;5052456;28;20193;-57
2023/06/25 09:01:59;;;;;;;8.55;5.47;;;;;;;29.20;57.22;97978.69;5052828;28;20173;-58
2023/06/25 09:04:24;;;;;;;6.00;5.13;;;;;;;29.30;56.99;97986.91;5052946;28;20694;-57
2023/06/25 09:06:50;;;;;;;6.30;5.70;;;;;;;29.26;57.10;97968.97;5070524;28;20253;-56
2023/06/25 09:09:15;;;;;;;7.82;5.45;;;;;;;29.32;56.93;97979.47;5070228;28;20655;-57
2023/06/25 09:11:41;;;;;;;6.45;5.25;;;;;;;29.28;57.80;97964.19;5070264;28;20724;-57
2023/06/25 09:14:06;;;;;;;6.55;5.03;;;;;;;29.39;56.34;97980.16;5070200;28;20185;-57
2023/06/25 09:16:32;;;;;;;7.50;6.80;;;;;;;29.37;57.29;97974.25;5050035;28;20177;-58
2023/06/25 09:19:00;;;;;;;13.18;8.77;;;;;;;29.37;56.91;97970.78;5049847;28;20193;-57
2023/06/25 09:21:35;;;;;;;9.75;6.15;;;;;;;29.48;56.80;97984.09;5050020;28;20734;-58
2023/06/25 09:24:19;;;;;;;15.13;9.90;;;;;;;29.54;56.21;97982.38;5049946;28;20648;-55
2023/06/25 09:26:49;;;;;;;8.50;5.75;;;;;;;29.62;55.63;97972.16;5050006;28;20231;-55
2023/06/25 09:29:16;;;;;;;6.35;5.72;;;;;;;29.67;56.03;97966.91;5049354;28;20188;-55
2023/06/25 09:31:43;;;;;;;7.03;6.20;;;;;;;29.65;55.54;97947.69;5049869;28;20223;-56
2023/06/25 09:34:09;;;;;;;7.82;5.93;;;;;;;29.62;55.67;97936.69;5049840;28;20679;-56
2023/06/25 09:36:38;;;;;;;9.50;5.78;;;;;;;29.81;56.58;97952.28;5049787;28;20703;-56
2023/06/25 09:39:05;;;;;;;8.55;6.20;;;;;;;29.76;56.71;97925.50;5009917;28;20191;-57
2023/06/25 09:41:33;;;;;;;13.30;6.45;;;;;;;29.98;54.91;97944.31;5010156;28;20277;-57
2023/06/25 09:44:04;;;;;;;7.68;5.97;;;;;;;30.09;54.90;97938.13;5009937;28;20214;-57
2023/06/25 09:46:34;;;;;;;6.93;5.68;;;;;;;30.17;54.83;97946.56;5008568;28;20774;-58
2023/06/25 09:49:01;;;;;;;5.93;5.35;;;;;;;30.11;53.20;97915.50;4994590;28;20202;-57
2023/06/25 09:51:45;;;;;;;7.50;5.97;;;;;;;30.21;53.76;97936.22;5029717;28;20213;-56
2023/06/25 09:54:12;;;;;;;9.00;6.15;;;;;;;30.12;53.75;97922.47;5029679;28;20215;-57
2023/06/25 09:56:42;;;;;;;6.90;5.45;;;;;;;30.15;53.26;97905.94;5029687;28;20173;-56
2023/06/25 09:59:09;;;;;;;8.02;5.35;;;;;;;30.34;53.58;97920.72;5029699;28;20303;-56
2023/06/25 10:01:35;;;;;;;6.78;6.10;;;;;;;30.51;52.79;97916.19;5029585;28;20534;-57
2023/06/25 10:04:01;;;;;;;7.70;5.97;;;;;;;30.68;51.46;97921.53;5029243;28;20256;-57
2023/06/25 10:06:27;;;;;;;6.75;6.03;;;;;;;30.72;51.06;97928.81;5049321;28;20217;-57
2023/06/25 10:08:54;;;;;;;13.02;6.35;;;;;;;30.76;50.86;97916.59;5029661;28;20197;-58
2023/06/25 10:11:20;;;;;;;6.85;5.70;;;;;;;30.78;51.34;97898.44;5049362;28;20549;-56
2023/06/25 10:13:45;;;;;;;10.57;6.28;;;;;;;30.95;50.12;97914.47;5009306;28;20194;-56
2023/06/25 10:16:18;;;;;;;7.63;6.32;;;;;;;31.04;49.70;97907.63;5009346;28;20575;-57
2023/06/25 10:18:44;;;;;;;8.85;6.63;;;;;;;30.95;50.25;97896.56;5009620;28;20198;-56
2023/06/25 10:21:18;;;;;;;6.97;6.28;;;;;;;31.02;50.45;97883.81;5009588;28;20598;-57
2023/06/25 10:23:53;;;;;;;8.77;6.28;;;;;;;30.96;49.41;97874.13;5009489;28;20280;-57
2023/06/25 10:26:19;;;;;;;8.20;6.50;;;;;;;30.99;49.93;97897.69;5009492;28;20197;-57
2023/06/25 10:28:50;;;;;;;8.10;6.20;;;;;;;30.63;49.83;97876.03;5009609;28;20191;-57
2023/06/25 10:31:16;;;;;;;8.13;6.10;;;;;;;30.78;49.89;97873.63;5009558;28;20186;-57
2023/06/25 10:33:45;;;;;;;7.35;6.20;;;;;;;30.76;48.61;97887.22;5009538;28;20205;-58
2023/06/25 10:36:11;;;;;;;8.45;6.43;;;;;;;30.75;49.89;97880.25;5009507;28;20198;-57
2023/06/25 10:38:37;;;;;;;6.63;6.03;;;;;;;30.81;49.27;97876.59;4971127;28;20765;-57
2023/06/25 10:41:03;;;;;;;5.90;5.40;;;;;;;30.66;49.29;97875.56;4971683;28;20251;-57
2023/06/25 10:43:28;;;;;;;6.63;5.95;;;;;;;30.59;50.64;97878.38;4974308;28;20183;-57
2023/06/25 10:45:55;;;;;;;7.20;6.50;;;;;;;30.49;50.08;97880.09;4999456;28;20182;-57
2023/06/25 10:48:22;;;;;;;8.32;6.20;;;;;;;30.31;51.10;97875.00;5013226;28;20238;-57
2023/06/25 10:50:49;;;;;;;5.85;5.25;;;;;;;30.28;51.90;97888.81;5013146;28;20289;-57
2023/06/25 10:53:16;;;;;;;6.85;6.15;;;;;;;30.27;51.58;97885.34;5027446;28;20239;-57
2023/06/25 10:55:46;;;;;;;6.82;6.20;;;;;;;30.06;53.21;97854.00;5032807;28;20190;-57
2023/06/25 10:58:21;;;;;;;11.30;6.15;;;;;;;30.01;56.64;97859.25;5032832;28;20190;-58
2023/06/25 11:00:54;;;;;;;6.53;5.90;;;;;;;30.02;57.30;97868.06;5032923;28;20268;-57
2023/06/25 11:03:19;;;;;;;7.50;5.88;;;;;;;29.96;57.58;97848.47;5032709;28;20579;-57
2023/06/25 11:05:47;;;;;;;10.23;6.65;;;;;;;30.04;58.01;97844.59;5032711;28;20205;-57
2023/06/25 11:08:14;;;;;;;9.00;6.15;;;;;;;30.00;58.86;97849.63;5032670;28;20185;-57
2023/06/25 11:10:41;;;;;;;9.77;6.85;;;;;;;29.83;61.11;97843.47;5032682;28;20174;-58
2023/06/25 11:13:11;;;;;;;9.10;6.47;;;;;;;29.57;62.38;97821.91;5032592;28;20568;-58
2023/06/25 11:15:37;;;;;;;8.23;6.68;;;;;;;29.64;62.71;97850.06;5032636;28;20248;-58
2023/06/25 11:18:05;;;;;;;6.90;6.22;;;;;;;29.47;63.77;97837.69;5032555;28;20232;-58
2023/06/25 11:20:32;;;;;;;7.88;6.57;;;;;;;29.46;65.41;97842.22;5032531;28;20719;-58
2023/06/25 11:23:01;;;;;;;8.30;6.35;;;;;;;29.46;63.88;97844.88;5032349;28;20190;-58
2023/06/25 11:25:29;;;;;;;7.47;6.25;;;;;;;29.22;65.93;97835.31;5015748;28;20592;-58
2023/06/25 11:28:02;;;;;;;8.38;6.70;;;;;;;29.21;68.15;97847.03;5032256;28;20660;-57